Time;durP1;ratioP1;P1;durP2;ratioP2;P2;SDS_P1;SDS_P2;PMS_P1;PMS_P2;Temp;Humidity;BMP_temperature;BMP_pressure;BME280_temperature;BME280_humidity;BME280_pressure;Samples;Min_cycle;Max_cycle;Signal;HPM_P1;HPM_P2
2021/06/07 00:01:14;;;;;;;31.73;27.47;;;16.20;99.90;;;;;;5119581;28;20210;-35
2021/06/07 00:03:39;;;;;;;34.03;29.87;;;16.20;99.90;;;;;;5119700;28;20176;-35
2021/06/07 00:06:05;;;;;;;31.70;27.53;;;16.10;99.90;;;;;;5119899;28;20524;-36
2021/06/07 00:08:31;;;;;;;37.27;29.40;;;16.00;99.90;;;;;;5120181;28;20221;-36
2021/06/07 00:10:57;;;;;;;29.20;25.97;;;16.00;99.90;;;;;;5120365;28;20445;-36
2021/06/07 00:13:24;;;;;;;32.93;28.07;;;16.00;99.90;;;;;;5119992;28;20421;-35
2021/06/07 00:15:51;;;;;;;37.10;30.07;;;15.90;99.90;;;;;;5119385;28;20588;-35
2021/06/07 00:18:17;;;;;;;36.20;31.20;;;15.90;99.90;;;;;;5119606;28;20413;-35
2021/06/07 00:20:46;;;;;;;33.63;28.37;;;15.90;99.90;;;;;;5119630;28;20823;-36
2021/06/07 00:23:12;;;;;;;33.83;28.67;;;15.90;99.90;;;;;;5119268;28;20457;-35
2021/06/07 00:25:39;;;;;;;31.93;28.20;;;16.00;99.90;;;;;;5119914;28;20433;-35
2021/06/07 00:28:06;;;;;;;37.70;30.17;;;16.00;99.90;;;;;;5119418;28;20418;-35
2021/06/07 00:30:33;;;;;;;32.90;27.80;;;16.00;99.90;;;;;;5119569;28;20433;-35
2021/06/07 00:32:59;;;;;;;35.00;28.47;;;16.00;99.90;;;;;;5119463;28;20414;-36
2021/06/07 00:35:26;;;;;;;32.93;29.20;;;16.00;99.90;;;;;;5119318;28;20473;-36
2021/06/07 00:37:52;;;;;;;35.40;28.47;;;16.00;99.90;;;;;;5119161;28;20478;-35
2021/06/07 00:40:19;;;;;;;38.23;31.97;;;16.00;99.90;;;;;;5119048;28;20537;-35
2021/06/07 00:42:45;;;;;;;40.17;29.33;;;16.00;99.90;;;;;;5119596;28;20819;-35
2021/06/07 00:45:17;;;;;;;43.70;33.60;;;16.00;99.90;;;;;;5118812;28;20452;-35
2021/06/07 00:47:42;;;;;;;38.13;30.13;;;16.00;99.90;;;;;;5119036;28;20837;-36
2021/06/07 00:50:12;;;;;;;38.93;30.40;;;15.90;99.90;;;;;;5083910;28;20437;-35
2021/06/07 00:52:59;;;;;;;38.00;31.17;;;15.90;99.90;;;;;;5119212;28;20206;-36
2021/06/07 00:55:25;;;;;;;38.80;31.10;;;15.90;99.90;;;;;;5118483;28;20477;-35
2021/06/07 00:57:52;;;;;;;35.80;29.00;;;15.90;99.90;;;;;;5118778;28;20420;-35
2021/06/07 01:00:18;;;;;;;37.23;29.60;;;15.90;99.90;;;;;;5118929;28;20910;-36
2021/06/07 01:02:44;;;;;;;35.67;29.37;;;15.90;99.90;;;;;;5119305;28;20808;-36
2021/06/07 01:05:10;;;;;;;35.93;29.40;;;15.90;99.90;;;;;;5117461;28;20469;-36
2021/06/07 01:07:36;;;;;;;37.37;28.80;;;15.90;99.90;;;;;;5117657;28;20346;-35
2021/06/07 01:10:02;;;;;;;34.80;28.20;;;15.90;99.90;;;;;;5099490;28;20512;-35
2021/06/07 01:12:27;;;;;;;36.33;29.53;;;15.90;99.90;;;;;;5117478;28;20172;-35
2021/06/07 01:14:53;;;;;;;43.23;31.47;;;15.90;99.90;;;;;;5117288;28;20261;-34
2021/06/07 01:17:18;;;;;;;33.63;27.90;;;16.00;99.90;;;;;;5117641;28;20190;-35
2021/06/07 01:19:44;;;;;;;37.67;29.40;;;15.90;99.90;;;;;;5099473;28;20202;-36
2021/06/07 01:22:10;;;;;;;33.37;26.93;;;16.00;99.90;;;;;;5099992;28;20175;-35
2021/06/07 01:24:35;;;;;;;33.27;27.63;;;16.00;99.90;;;;;;5117004;28;20167;-36
2021/06/07 01:27:01;;;;;;;39.80;31.30;;;15.90;99.90;;;;;;5117530;28;20176;-36
2021/06/07 01:29:26;;;;;;;31.40;27.40;;;15.90;99.90;;;;;;5117198;28;20270;-35
2021/06/07 01:31:52;;;;;;;38.03;28.40;;;15.90;99.90;;;;;;5117410;28;20283;-35
2021/06/07 01:34:58;;;;;;;35.17;28.17;;;15.90;99.90;;;;;;5098716;28;20211;-35
2021/06/07 01:37:24;;;;;;;34.40;26.70;;;15.90;99.90;;;;;;5116929;28;20180;-35
2021/06/07 01:39:49;;;;;;;33.43;28.10;;;15.80;99.90;;;;;;5117207;28;20420;-36
2021/06/07 01:42:15;;;;;;;32.23;26.67;;;15.80;99.90;;;;;;5099282;28;20203;-35
2021/06/07 01:44:41;;;;;;;35.30;27.03;;;15.80;99.90;;;;;;5117295;28;20179;-35
2021/06/07 01:47:06;;;;;;;33.30;26.97;;;15.80;99.90;;;;;;5117199;28;20548;-35
2021/06/07 01:49:32;;;;;;;38.33;30.43;;;15.80;99.90;;;;;;5117284;28;20407;-35
2021/06/07 01:51:58;;;;;;;40.33;28.43;;;15.70;99.90;;;;;;5117374;28;20252;-36
2021/06/07 01:54:23;;;;;;;38.73;27.47;;;15.70;99.90;;;;;;5117229;28;20214;-35
2021/06/07 01:56:49;;;;;;;43.90;32.30;;;15.70;99.90;;;;;;5099238;28;20283;-35
2021/06/07 01:59:14;;;;;;;35.93;29.07;;;15.70;99.90;;;;;;5116889;28;20458;-36
2021/06/07 02:01:40;;;;;;;37.47;29.13;;;15.70;99.90;;;;;;5118863;28;20218;-35
2021/06/07 02:04:06;;;;;;;42.30;29.97;;;15.70;99.90;;;;;;5121227;28;20171;-36
2021/06/07 02:06:32;;;;;;;42.67;31.07;;;15.70;99.90;;;;;;5103221;28;20409;-35
2021/06/07 02:08:58;;;;;;;40.50;31.33;;;15.70;99.90;;;;;;5121414;28;20168;-35
2021/06/07 02:11:28;;;;;;;41.57;31.87;;;15.70;99.90;;;;;;5103759;28;20190;-35
2021/06/07 02:13:57;;;;;;;49.63;31.73;;;15.70;99.90;;;;;;5120852;28;20510;-36
2021/06/07 02:16:25;;;;;;;40.23;28.77;;;15.70;99.90;;;;;;5128950;27;20520;-35
2021/06/07 02:18:52;;;;;;;44.73;31.80;;;15.70;99.90;;;;;;5141295;27;20516;-35
2021/06/07 02:21:20;;;;;;;39.70;31.20;;;15.60;99.90;;;;;;5141367;27;20409;-35
2021/06/07 02:23:46;;;;;;;41.43;30.10;;;15.60;99.90;;;;;;5141539;27;20431;-35
2021/06/07 02:26:13;;;;;;;43.37;29.73;;;15.60;99.90;;;;;;5140948;27;20764;-35
2021/06/07 02:28:44;;;;;;;39.73;30.33;;;15.70;99.90;;;;;;5141109;27;20520;-35
2021/06/07 02:31:10;;;;;;;41.60;30.33;;;15.60;99.90;;;;;;5140848;27;20424;-35
2021/06/07 02:33:35;;;;;;;46.60;31.80;;;15.70;99.90;;;;;;5141127;27;20844;-36
2021/06/07 02:36:01;;;;;;;42.13;30.67;;;15.70;99.90;;;;;;5141221;27;20262;-35
2021/06/07 02:38:27;;;;;;;45.43;32.33;;;15.70;99.90;;;;;;5141176;27;20234;-35
2021/06/07 02:40:53;;;;;;;45.67;30.13;;;15.70;99.90;;;;;;5140821;27;20409;-36
2021/06/07 02:43:19;;;;;;;49.47;35.30;;;15.70;99.90;;;;;;5140809;27;20625;-35
2021/06/07 02:45:44;;;;;;;45.70;32.80;;;15.70;99.90;;;;;;5140501;27;20441;-35
2021/06/07 02:48:10;;;;;;;44.07;31.43;;;15.60;99.90;;;;;;5140623;27;20199;-35
2021/06/07 02:50:39;;;;;;;43.10;31.03;;;15.70;99.90;;;;;;5140844;27;20544;-36
2021/06/07 02:53:06;;;;;;;39.10;29.40;;;15.70;99.90;;;;;;5122358;27;20455;-35
2021/06/07 02:55:41;;;;;;;43.70;29.80;;;15.70;99.90;;;;;;5140573;27;20551;-35
2021/06/07 02:58:07;;;;;;;37.40;28.97;;;15.60;99.90;;;;;;5140814;27;20492;-36
2021/06/07 03:00:40;;;;;;;48.70;33.10;;;15.60;99.90;;;;;;5140824;27;20408;-36
2021/06/07 03:03:07;;;;;;;42.53;31.77;;;15.60;99.90;;;;;;5140215;27;20683;-35
2021/06/07 03:05:33;;;;;;;41.73;30.10;;;15.60;99.90;;;;;;5140320;27;20698;-36
2021/06/07 03:08:00;;;;;;;52.17;34.93;;;15.60;99.90;;;;;;5140134;27;20593;-36
2021/06/07 03:10:26;;;;;;;44.37;33.10;;;15.60;99.90;;;;;;5140352;27;20419;-35
2021/06/07 03:12:52;;;;;;;44.20;31.83;;;15.50;99.90;;;;;;5139461;27;20444;-35
2021/06/07 03:15:19;;;;;;;48.17;33.20;;;15.50;99.90;;;;;;5139951;27;20472;-35
2021/06/07 03:17:45;;;;;;;48.43;33.60;;;15.50;99.90;;;;;;5140152;27;20255;-35
2021/06/07 03:20:13;;;;;;;52.97;35.03;;;15.40;99.90;;;;;;5139868;27;20417;-36
2021/06/07 03:22:39;;;;;;;42.60;31.20;;;15.40;99.90;;;;;;5140203;27;20454;-36
2021/06/07 03:25:06;;;;;;;44.10;33.30;;;15.40;99.90;;;;;;5140476;27;20430;-35
2021/06/07 03:27:31;;;;;;;42.20;31.10;;;15.40;99.90;;;;;;5121755;27;20225;-36
2021/06/07 03:29:57;;;;;;;42.10;30.60;;;15.50;99.90;;;;;;5139161;27;20829;-35
2021/06/07 03:32:23;;;;;;;44.23;32.23;;;15.50;99.90;;;;;;5139757;27;20211;-35
2021/06/07 03:34:49;;;;;;;45.83;32.30;;;15.50;99.90;;;;;;5139265;27;20207;-35
2021/06/07 03:37:14;;;;;;;45.10;30.97;;;15.50;99.90;;;;;;5138106;27;20444;-36
2021/06/07 03:39:41;;;;;;;48.30;31.80;;;15.50;99.90;;;;;;5138144;27;20549;-37
2021/06/07 03:42:07;;;;;;;45.27;33.73;;;15.50;99.90;;;;;;5137924;27;20541;-36
2021/06/07 03:44:33;;;;;;;44.50;31.67;;;15.40;99.90;;;;;;5137664;27;20408;-35
2021/06/07 03:46:58;;;;;;;51.30;35.40;;;15.40;99.90;;;;;;5136813;27;20827;-35
2021/06/07 03:49:24;;;;;;;48.40;35.20;;;15.40;99.90;;;;;;5137673;27;20493;-35
2021/06/07 03:51:50;;;;;;;44.50;34.40;;;15.40;99.90;;;;;;5138749;27;20488;-35
2021/06/07 03:54:16;;;;;;;46.30;33.90;;;15.40;99.90;;;;;;5139596;27;20460;-35
2021/06/07 03:56:42;;;;;;;47.60;33.70;;;15.40;99.90;;;;;;5138881;27;20185;-35
2021/06/07 03:59:07;;;;;;;50.03;33.67;;;15.50;99.90;;;;;;5137729;27;20437;-36
2021/06/07 04:01:33;;;;;;;47.47;33.77;;;15.50;99.90;;;;;;5139019;27;20176;-40
2021/06/07 04:03:59;;;;;;;46.87;34.07;;;15.50;99.90;;;;;;5139445;27;20454;-35
2021/06/07 04:06:24;;;;;;;46.93;33.37;;;15.50;99.90;;;;;;5139419;27;20206;-35
2021/06/07 04:08:55;;;;;;;44.77;31.60;;;15.50;99.90;;;;;;5137268;27;20183;-36
2021/06/07 04:11:21;;;;;;;48.00;33.33;;;15.50;99.90;;;;;;5139021;27;20261;-35
2021/06/07 04:13:47;;;;;;;44.57;30.97;;;15.50;99.90;;;;;;5138618;27;20769;-36
2021/06/07 04:16:12;;;;;;;47.50;33.27;;;15.50;99.90;;;;;;5137891;27;20242;-35
2021/06/07 04:18:38;;;;;;;45.90;31.70;;;15.50;99.90;;;;;;5138652;27;20180;-35
2021/06/07 04:21:04;;;;;;;44.70;33.37;;;15.50;99.90;;;;;;5138397;27;20170;-36
2021/06/07 04:23:30;;;;;;;45.07;32.63;;;15.50;99.90;;;;;;5138514;27;20171;-35
2021/06/07 04:25:55;;;;;;;46.00;31.73;;;15.50;99.90;;;;;;5138218;27;20488;-35
2021/06/07 04:28:21;;;;;;;46.30;31.77;;;15.50;99.90;;;;;;5139123;27;20190;-35
2021/06/07 04:30:46;;;;;;;41.10;30.13;;;15.50;99.90;;;;;;5138722;27;20170;-35
2021/06/07 04:33:12;;;;;;;40.90;32.47;;;15.60;99.90;;;;;;5137957;27;20287;-35
2021/06/07 04:35:38;;;;;;;37.33;28.70;;;15.60;99.90;;;;;;5138427;27;20306;-35
2021/06/07 04:38:03;;;;;;;38.70;28.40;;;15.70;99.90;;;;;;5138425;27;20504;-35
2021/06/07 04:40:35;;;;;;;39.77;28.00;;;15.70;99.90;;;;;;5136829;27;20197;-34
2021/06/07 04:43:03;;;;;;;38.00;27.87;;;15.70;99.90;;;;;;5138206;27;20470;-35
2021/06/07 04:45:29;;;;;;;38.90;29.27;;;15.80;99.90;;;;;;5137517;27;20409;-35
2021/06/07 04:47:55;;;;;;;40.70;30.30;;;15.80;99.90;;;;;;5118988;27;20716;-35
2021/06/07 04:50:23;;;;;;;40.53;30.87;;;15.80;99.90;;;;;;5138210;27;20455;-36
2021/06/07 04:53:01;;;;;;;38.67;28.73;;;15.80;99.90;;;;;;5137418;27;20428;-35
2021/06/07 04:55:35;;;;;;;37.90;28.80;;;15.80;99.90;;;;;;5137086;27;20871;-36
2021/06/07 04:58:07;;;;;;;37.03;26.90;;;15.80;99.90;;;;;;5136123;27;20441;-35
2021/06/07 05:00:34;;;;;;;33.47;25.73;;;15.80;99.90;;;;;;5136869;27;20409;-35
2021/06/07 05:03:00;;;;;;;39.27;29.90;;;15.80;99.90;;;;;;5137662;27;20453;-34
2021/06/07 05:05:25;;;;;;;30.17;24.63;;;15.80;99.90;;;;;;5135568;27;20409;-35
2021/06/07 05:07:51;;;;;;;33.17;25.83;;;15.80;99.90;;;;;;5135699;27;20195;-35
2021/06/07 05:10:17;;;;;;;30.10;25.17;;;15.90;99.90;;;;;;5137543;27;20458;-35
2021/06/07 05:12:43;;;;;;;32.10;26.80;;;15.90;99.90;;;;;;5135242;27;20204;-37
2021/06/07 05:15:10;;;;;;;31.53;22.77;;;15.90;99.90;;;;;;5135785;27;20571;-36
2021/06/07 05:17:36;;;;;;;29.77;24.27;;;15.90;99.90;;;;;;5135145;27;20472;-36
2021/06/07 05:20:04;;;;;;;27.50;23.10;;;15.90;99.90;;;;;;5135964;27;20405;-35
2021/06/07 05:22:30;;;;;;;29.70;24.00;;;16.00;99.90;;;;;;5134368;27;20214;-35
2021/06/07 05:24:55;;;;;;;27.07;22.30;;;16.10;99.90;;;;;;5135203;27;20413;-34
2021/06/07 05:27:21;;;;;;;26.50;21.97;;;16.10;99.90;;;;;;5136925;27;20183;-35
2021/06/07 05:29:47;;;;;;;23.50;19.60;;;16.10;99.90;;;;;;5135991;27;20175;-34
2021/06/07 05:32:13;;;;;;;26.47;20.27;;;16.10;99.90;;;;;;5135607;27;20549;-35
2021/06/07 05:34:38;;;;;;;24.60;20.30;;;16.10;99.90;;;;;;5136891;27;20617;-35
2021/06/07 05:37:05;;;;;;;27.13;19.57;;;16.20;99.90;;;;;;5116762;27;20463;-35
2021/06/07 05:39:31;;;;;;;23.63;19.10;;;16.20;99.90;;;;;;5136188;27;20592;-34
2021/06/07 05:41:58;;;;;;;26.77;20.17;;;16.20;99.90;;;;;;5135679;27;20533;-35
2021/06/07 05:44:23;;;;;;;23.37;19.20;;;16.30;99.90;;;;;;5135566;28;20413;-36
2021/06/07 05:46:51;;;;;;;23.67;19.93;;;16.30;99.90;;;;;;5135192;28;20472;-35
2021/06/07 05:49:17;;;;;;;20.80;17.00;;;16.30;99.90;;;;;;5132921;28;20178;-36
2021/06/07 05:51:43;;;;;;;19.63;17.53;;;16.40;99.90;;;;;;5132810;28;20874;-35
2021/06/07 05:54:09;;;;;;;21.57;17.60;;;16.40;99.90;;;;;;5132689;28;20420;-36
2021/06/07 05:56:37;;;;;;;22.87;19.20;;;16.40;99.90;;;;;;5131681;28;20167;-35
2021/06/07 05:59:04;;;;;;;19.93;17.33;;;16.50;99.90;;;;;;5134017;28;20186;-36
2021/06/07 06:01:31;;;;;;;17.93;15.30;;;16.50;99.90;;;;;;5133957;28;20405;-36
2021/06/07 06:03:57;;;;;;;17.20;15.40;;;16.50;99.90;;;;;;5133780;28;20424;-34
2021/06/07 06:06:24;;;;;;;19.80;16.90;;;16.50;99.90;;;;;;5134173;28;20825;-36
2021/06/07 06:08:50;;;;;;;18.63;16.10;;;16.50;99.90;;;;;;5135031;28;20469;-37
2021/06/07 06:11:17;;;;;;;20.70;15.97;;;16.50;99.90;;;;;;5136217;28;20405;-37
2021/06/07 06:13:42;;;;;;;16.43;14.70;;;16.60;99.90;;;;;;5136469;28;20417;-36
2021/06/07 06:16:08;;;;;;;18.13;16.23;;;16.60;99.90;;;;;;5136910;28;20985;-36
2021/06/07 06:18:37;;;;;;;17.70;15.03;;;16.60;99.90;;;;;;5135201;28;20194;-37
2021/06/07 06:21:03;;;;;;;18.90;16.97;;;16.60;99.90;;;;;;5133660;28;20206;-36
2021/06/07 06:23:28;;;;;;;16.40;14.20;;;16.60;99.90;;;;;;5118330;28;20452;-36
2021/06/07 06:25:54;;;;;;;15.83;14.00;;;16.50;99.90;;;;;;5135705;28;20216;-36
2021/06/07 06:28:19;;;;;;;16.23;13.97;;;16.60;99.90;;;;;;5135794;28;20191;-36
2021/06/07 06:30:45;;;;;;;16.07;14.40;;;16.60;99.90;;;;;;5135753;28;20209;-36
2021/06/07 06:33:10;;;;;;;17.17;14.10;;;16.60;99.90;;;;;;5134994;28;20251;-36
2021/06/07 06:35:36;;;;;;;15.73;14.03;;;16.60;99.90;;;;;;5117521;28;20234;-36
2021/06/07 06:38:02;;;;;;;12.97;11.67;;;16.70;99.90;;;;;;5116402;28;20206;-36
2021/06/07 06:40:31;;;;;;;14.27;12.27;;;16.70;99.90;;;;;;5135895;28;20383;-36
2021/06/07 06:42:57;;;;;;;14.33;12.80;;;16.70;99.90;;;;;;5136335;28;20328;-36
2021/06/07 06:45:23;;;;;;;15.07;11.83;;;16.70;99.90;;;;;;5135735;28;20682;-36
2021/06/07 06:47:57;;;;;;;14.30;12.80;;;16.70;99.90;;;;;;5117976;28;20449;-36
2021/06/07 06:50:25;;;;;;;13.67;12.10;;;16.70;99.90;;;;;;5115980;28;20172;-36
2021/06/07 06:52:51;;;;;;;15.27;13.67;;;16.70;99.90;;;;;;5118595;28;20697;-35
2021/06/07 06:55:16;;;;;;;12.63;10.90;;;16.70;99.90;;;;;;5119309;28;20536;-36
2021/06/07 06:57:42;;;;;;;15.13;12.90;;;16.70;99.90;;;;;;5124150;27;20179;-36
2021/06/07 07:00:09;;;;;;;20.80;14.77;;;16.80;99.90;;;;;;5137807;27;20409;-36
2021/06/07 07:02:35;;;;;;;14.43;12.90;;;16.80;99.90;;;;;;5133909;27;20180;-37
2021/06/07 07:05:01;;;;;;;15.80;14.10;;;16.80;99.90;;;;;;5118661;28;20492;-36
2021/06/07 07:07:26;;;;;;;17.50;13.20;;;16.80;99.90;;;;;;5118169;28;20539;-36
2021/06/07 07:09:52;;;;;;;17.03;15.00;;;16.80;99.90;;;;;;5118505;28;20178;-36
2021/06/07 07:12:23;;;;;;;16.03;13.70;;;16.80;99.90;;;;;;5117566;28;20183;-36
2021/06/07 07:14:49;;;;;;;16.57;14.73;;;16.80;99.90;;;;;;5117533;28;20230;-36
2021/06/07 07:17:15;;;;;;;15.67;13.97;;;16.80;99.90;;;;;;5117181;28;20434;-36
2021/06/07 07:19:41;;;;;;;14.47;12.87;;;16.80;99.90;;;;;;5099743;28;20489;-36
2021/06/07 07:22:08;;;;;;;18.57;14.07;;;16.80;99.90;;;;;;5117411;28;20172;-37
2021/06/07 07:24:34;;;;;;;17.47;14.27;;;16.90;99.90;;;;;;5118481;28;20417;-36
2021/06/07 07:27:00;;;;;;;17.23;15.53;;;17.00;99.90;;;;;;5116245;28;20681;-36
2021/06/07 07:29:26;;;;;;;16.27;14.50;;;17.00;99.90;;;;;;5098567;27;20183;-38
2021/06/07 07:31:52;;;;;;;16.27;13.77;;;17.10;99.90;;;;;;5118003;28;20421;-37
2021/06/07 07:34:19;;;;;;;15.53;14.00;;;17.20;99.90;;;;;;5117738;28;20463;-36
2021/06/07 07:36:45;;;;;;;16.23;13.20;;;17.40;99.90;;;;;;5116973;28;20437;-36
2021/06/07 07:39:11;;;;;;;14.27;12.37;;;17.60;99.90;;;;;;5115137;28;20409;-36
2021/06/07 07:41:36;;;;;;;14.77;12.83;;;17.60;99.90;;;;;;5115443;28;20171;-36
2021/06/07 07:44:02;;;;;;;16.20;13.03;;;17.70;99.90;;;;;;5115114;28;20314;-37
2021/06/07 07:46:28;;;;;;;14.77;13.17;;;17.70;99.90;;;;;;5116879;28;20172;-36
2021/06/07 07:48:53;;;;;;;14.13;12.63;;;17.70;99.90;;;;;;5118080;28;20581;-36
2021/06/07 07:51:19;;;;;;;16.70;14.97;;;17.70;99.90;;;;;;5117754;28;20541;-36
2021/06/07 07:53:44;;;;;;;16.03;14.07;;;17.70;99.90;;;;;;5116635;28;20180;-35
2021/06/07 07:56:10;;;;;;;15.17;13.50;;;17.70;99.90;;;;;;5117416;28;20311;-35
2021/06/07 07:58:35;;;;;;;16.00;14.40;;;17.70;99.90;;;;;;5116391;28;20176;-36
2021/06/07 08:01:01;;;;;;;14.23;12.60;;;17.70;99.90;;;;;;5116236;28;20195;-36
2021/06/07 08:03:27;;;;;;;13.53;12.17;;;17.50;99.90;;;;;;5117093;28;20203;-36
2021/06/07 08:05:52;;;;;;;12.70;10.97;;;17.80;99.90;;;;;;5116337;28;20168;-36
2021/06/07 08:08:18;;;;;;;13.43;11.60;;;17.90;99.90;;;;;;5116955;28;20222;-36
2021/06/07 08:10:43;;;;;;;13.83;11.60;;;18.00;99.90;;;;;;5117038;28;20516;-35
2021/06/07 08:13:09;;;;;;;13.30;11.53;;;18.00;99.90;;;;;;5117359;28;20183;-36
2021/06/07 08:15:35;;;;;;;12.43;11.13;;;18.00;99.90;;;;;;5115762;28;20224;-36
2021/06/07 08:18:02;;;;;;;13.60;12.20;;;17.90;99.90;;;;;;5117436;28;20248;-36
2021/06/07 08:20:27;;;;;;;13.30;11.70;;;17.90;99.90;;;;;;5135784;27;20182;-36
2021/06/07 08:22:55;;;;;;;13.70;11.63;;;17.90;99.90;;;;;;5136926;27;20400;-36
2021/06/07 08:25:21;;;;;;;12.23;11.03;;;17.80;99.90;;;;;;5136709;27;20206;-36
2021/06/07 08:27:47;;;;;;;12.23;10.93;;;17.80;99.90;;;;;;5136693;27;20421;-36
2021/06/07 08:30:13;;;;;;;12.20;10.90;;;17.80;99.90;;;;;;5137103;27;20477;-36
2021/06/07 08:32:40;;;;;;;11.87;10.73;;;17.80;99.90;;;;;;5137287;27;20568;-36
2021/06/07 08:35:08;;;;;;;10.37;9.37;;;17.80;99.90;;;;;;5137033;27;20504;-36
2021/06/07 08:37:34;;;;;;;11.33;10.23;;;17.90;99.90;;;;;;5137578;27;20719;-35
2021/06/07 08:40:00;;;;;;;10.00;9.00;;;17.90;99.90;;;;;;5136243;27;20421;-36
2021/06/07 08:42:27;;;;;;;10.20;9.20;;;17.90;99.90;;;;;;5136540;27;20415;-36
2021/06/07 08:44:53;;;;;;;10.50;9.40;;;18.00;99.90;;;;;;5137708;27;20417;-36
2021/06/07 08:47:20;;;;;;;10.87;9.87;;;18.10;99.90;;;;;;5136631;27;20581;-36
2021/06/07 08:49:46;;;;;;;8.53;7.73;;;18.20;99.90;;;;;;5118889;27;20704;-37
2021/06/07 08:52:13;;;;;;;9.63;8.73;;;18.30;99.90;;;;;;5136808;27;20571;-36
2021/06/07 08:54:39;;;;;;;8.40;7.60;;;18.40;99.90;;;;;;5136564;27;20311;-36
2021/06/07 08:57:05;;;;;;;8.57;7.70;;;18.40;99.90;;;;;;5136859;27;20431;-36
2021/06/07 08:59:31;;;;;;;9.27;8.37;;;18.50;99.90;;;;;;5136800;27;20436;-36
2021/06/07 09:02:01;;;;;;;9.00;8.17;;;18.50;99.90;;;;;;5136819;27;20417;-36
2021/06/07 09:04:27;;;;;;;8.47;7.73;;;18.50;99.90;;;;;;5137711;27;20175;-36
2021/06/07 09:06:53;;;;;;;10.10;9.07;;;18.60;99.90;;;;;;5138010;27;20421;-36
2021/06/07 09:09:22;;;;;;;9.43;8.53;;;18.60;99.90;;;;;;5098046;28;20223;-37
2021/06/07 09:12:00;;;;;;;9.27;8.37;;;18.60;99.90;;;;;;5115374;28;20414;-36
2021/06/07 09:14:30;;;;;;;10.50;9.50;;;18.60;99.90;;;;;;5115819;28;20441;-36
2021/06/07 09:16:56;;;;;;;9.53;8.63;;;18.60;99.90;;;;;;5098202;28;20743;-36
2021/06/07 09:19:25;;;;;;;8.77;7.97;;;18.60;99.90;;;;;;5116413;28;20451;-36
2021/06/07 09:21:54;;;;;;;11.00;9.90;;;18.60;99.90;;;;;;5116802;28;20429;-36
2021/06/07 09:24:19;;;;;;;11.90;10.70;;;18.60;99.90;;;;;;5116278;28;20441;-36
2021/06/07 09:26:50;;;;;;;10.33;9.40;;;18.60;99.90;;;;;;5115572;28;20456;-36
2021/06/07 09:29:18;;;;;;;9.47;8.67;;;18.50;99.90;;;;;;5115719;28;20160;-37
2021/06/07 09:31:50;;;;;;;9.70;8.80;;;18.50;99.90;;;;;;5115286;28;20513;-37
2021/06/07 09:34:24;;;;;;;6.83;6.23;;;18.50;99.90;;;;;;5098024;28;20497;-37
2021/06/07 09:36:50;;;;;;;7.23;6.63;;;18.60;99.90;;;;;;5098706;28;20421;-36
2021/06/07 09:39:20;;;;;;;7.67;6.87;;;18.70;99.90;;;;;;5115975;28;20417;-37
2021/06/07 09:42:00;;;;;;;8.10;7.30;;;18.90;99.90;;;;;;5117091;28;20171;-37
2021/06/07 09:44:34;;;;;;;8.27;5.70;;;19.00;99.90;;;;;;5115396;28;20841;-36
2021/06/07 09:47:19;;;;;;;7.83;6.27;;;19.10;99.90;;;;;;5114498;28;20496;-38
2021/06/07 09:49:50;;;;;;;6.10;5.50;;;19.20;99.90;;;;;;5113710;28;20409;-36
2021/06/07 09:52:55;;;;;;;6.90;6.30;;;19.30;99.90;;;;;;5112630;28;20528;-37
2021/06/07 09:55:27;;;;;;;6.53;5.93;;;19.50;99.90;;;;;;5093142;28;20460;-36
2021/06/07 09:58:04;;;;;;;6.80;5.77;;;19.60;99.90;;;;;;5113949;28;20513;-36
2021/06/07 10:00:43;;;;;;;6.10;5.60;;;19.60;99.90;;;;;;5112261;28;20835;-37
2021/06/07 10:03:22;;;;;;;6.60;5.90;;;19.60;99.90;;;;;;5113575;28;20417;-36
2021/06/07 10:05:53;;;;;;;6.20;5.50;;;19.60;99.90;;;;;;5114026;28;20497;-36
2021/06/07 10:08:22;;;;;;;6.90;6.20;;;19.60;99.90;;;;;;5115316;28;20433;-36
2021/06/07 10:10:48;;;;;;;6.20;5.67;;;19.60;99.90;;;;;;5115182;28;20402;-36
2021/06/07 10:13:13;;;;;;;7.40;6.70;;;19.60;99.90;;;;;;5115348;28;20490;-37
2021/06/07 10:15:41;;;;;;;8.10;7.40;;;19.60;99.90;;;;;;5116009;28;20241;-36
2021/06/07 10:18:15;;;;;;;9.73;8.83;;;19.50;99.90;;;;;;5115416;28;20176;-36
2021/06/07 10:23:22;;;;;;;9.50;8.60;;;19.70;99.90;;;;;;5118439;28;20807;-38
2021/06/07 10:25:49;;;;;;;9.97;9.03;;;19.80;99.90;;;;;;5118772;28;20417;-36
2021/06/07 10:28:15;;;;;;;9.60;8.80;;;19.80;99.90;;;;;;5117989;28;20456;-35
2021/06/07 10:30:44;;;;;;;10.87;9.87;;;19.90;99.90;;;;;;5118322;28;20417;-36
2021/06/07 10:33:23;;;;;;;9.70;8.80;;;19.80;99.90;;;;;;5117833;28;20858;-36
2021/06/07 10:35:48;;;;;;;13.80;11.97;;;19.70;99.90;;;;;;5128268;27;20463;-36
2021/06/07 10:38:14;;;;;;;11.40;10.33;;;19.50;99.90;;;;;;5139788;27;20436;-36
2021/06/07 10:40:43;;;;;;;11.73;10.53;;;19.30;99.90;;;;;;5120856;27;20178;-36
2021/06/07 10:43:11;;;;;;;10.70;9.70;;;19.20;99.90;;;;;;5138689;27;20229;-36
2021/06/07 10:45:39;;;;;;;9.93;9.03;;;19.20;99.90;;;;;;5120192;27;20423;-36
2021/06/07 10:48:07;;;;;;;12.10;10.90;;;19.30;99.90;;;;;;5139648;27;20572;-36
2021/06/07 10:50:45;;;;;;;12.47;11.23;;;19.30;99.90;;;;;;5138454;27;20416;-36
2021/06/07 10:53:24;;;;;;;12.17;10.97;;;19.30;99.90;;;;;;5138852;27;20436;-36
2021/06/07 10:56:08;;;;;;;9.97;8.97;;;19.40;99.90;;;;;;5137397;27;20463;-36
2021/06/07 10:58:34;;;;;;;10.87;9.83;;;19.60;99.90;;;;;;5138764;27;20489;-37
2021/06/07 11:01:01;;;;;;;13.10;11.80;;;19.80;99.90;;;;;;5121072;27;20815;-37
2021/06/07 11:03:31;;;;;;;11.80;10.70;;;19.80;99.90;;;;;;5138509;27;20203;-36
2021/06/07 11:05:59;;;;;;;11.77;10.67;;;19.80;99.90;;;;;;5120202;27;20417;-36
2021/06/07 11:08:32;;;;;;;12.60;11.50;;;19.80;99.90;;;;;;5130550;27;20429;-36
2021/06/07 11:11:22;;;;;;;12.10;11.00;;;19.90;99.90;;;;;;5085001;28;20494;-37
2021/06/07 11:13:54;;;;;;;10.77;9.77;;;20.00;99.90;;;;;;5119351;28;20435;-36
2021/06/07 11:16:33;;;;;;;10.87;9.97;;;20.10;99.90;;;;;;5119178;28;20465;-37
2021/06/07 11:19:02;;;;;;;10.00;9.00;;;20.10;99.90;;;;;;5118238;28;20417;-36
2021/06/07 11:21:37;;;;;;;13.60;12.40;;;20.10;99.90;;;;;;5116002;28;20456;-36
2021/06/07 11:24:35;;;;;;;9.87;9.07;;;20.00;99.90;;;;;;5114950;28;20516;-36
2021/06/07 11:27:05;;;;;;;11.70;10.60;;;19.90;99.90;;;;;;5115932;28;20432;-36
2021/06/07 11:29:31;;;;;;;11.17;10.07;;;19.80;99.90;;;;;;5116904;28;20428;-36
2021/06/07 11:32:10;;;;;;;10.13;9.23;;;19.80;99.90;;;;;;5116553;28;20426;-37
2021/06/07 11:34:38;;;;;;;10.93;10.03;;;19.70;99.90;;;;;;5115422;28;20472;-37
2021/06/07 11:37:04;;;;;;;13.90;12.60;;;19.60;99.90;;;;;;5118518;28;20432;-37
2021/06/07 11:39:49;;;;;;;11.17;10.07;;;19.50;99.90;;;;;;5118889;28;20512;-37
2021/06/07 11:42:20;;;;;;;12.40;11.30;;;19.50;99.90;;;;;;5118817;28;20442;-36
2021/06/07 11:44:58;;;;;;;11.67;10.57;;;19.50;99.90;;;;;;5117654;28;20428;-37
2021/06/07 11:47:50;;;;;;;14.77;13.43;;;19.50;99.90;;;;;;5116812;28;20414;-37
2021/06/07 11:50:31;;;;;;;11.77;10.70;;;19.50;99.90;;;;;;5117355;28;20406;-36
2021/06/07 11:53:00;;;;;;;12.57;11.47;;;19.50;99.90;;;;;;5118509;28;20421;-36
2021/06/07 11:55:33;;;;;;;11.73;10.77;;;19.50;99.90;;;;;;5099964;28;20526;-36
2021/06/07 11:58:12;;;;;;;11.30;10.30;;;19.60;99.90;;;;;;5116922;28;20490;-37
2021/06/07 12:00:50;;;;;;;14.00;12.53;;;19.80;99.90;;;;;;5117183;28;20401;-37
2021/06/07 12:03:19;;;;;;;12.03;10.93;;;20.10;99.90;;;;;;5115833;28;20452;-37
2021/06/07 12:05:45;;;;;;;11.13;10.13;;;20.40;99.90;;;;;;5098286;28;20425;-35
2021/06/07 12:08:13;;;;;;;12.03;10.87;;;20.60;99.90;;;;;;5116465;28;20486;-37
2021/06/07 12:10:48;;;;;;;10.13;9.20;;;20.70;99.90;;;;;;5116841;28;20491;-36
2021/06/07 12:13:22;;;;;;;12.40;11.10;;;20.70;99.90;;;;;;5117531;28;20433;-36
2021/06/07 12:15:52;;;;;;;13.37;12.17;;;20.70;99.90;;;;;;5116806;28;20477;-36
2021/06/07 12:18:46;;;;;;;11.53;10.40;;;20.50;99.90;;;;;;5116201;28;20751;-36
2021/06/07 12:21:16;;;;;;;12.90;11.77;;;20.30;99.90;;;;;;5115898;28;20653;-36
2021/06/07 12:23:48;;;;;;;13.67;12.40;;;20.20;99.90;;;;;;5116152;28;20436;-36
2021/06/07 12:29:33;;;;;;;12.47;11.37;;;20.10;99.90;;;;;;5116514;28;20425;-36
2021/06/07 12:32:09;;;;;;;11.60;10.50;;;20.20;99.90;;;;;;5116413;28;20850;-36
2021/06/07 12:34:37;;;;;;;12.77;11.67;;;20.40;99.90;;;;;;5117490;28;20465;-35
2021/06/07 12:37:04;;;;;;;14.30;13.10;;;20.50;99.90;;;;;;5099041;28;20850;-36
2021/06/07 12:39:30;;;;;;;15.00;13.70;;;20.50;99.90;;;;;;5115701;28;20409;-36
2021/06/07 12:41:56;;;;;;;12.87;11.77;;;20.80;99.90;;;;;;5116313;28;20445;-36